Airfield :
LOGIN :

Register | Disclaimer

   EN    FR    IT 

 










Legend :    VFR   Marginal VFR   IFR   Intensive IFR   Very Intensive IFR
Visi :
Ceiling :
>= 8 km
>= 3000ft
5 to 8 km
1000 to 3000 ft
1500m to 5 km
500 to 1000 ft
800 to 1500m
200 to 500 ft
< 800m
< 200 ft
Symbols :   Thunderstorms  Fog  Heavy snow  Heavy precipitations  Wind > 20 kt
SIGMETs :     Misc.  Thunderstorms  Icing  Turbulence  Mountain Waves  Volcanic Ashes






- Airport Elevation : 20 ft


EBFN - Koksijde

CURRENT METAR :
  • 210343Z AUTO VRB02KT 2500 BR FEW007/// 02/02 Q1017 YLO

EXPIRED METARs :
  • 210325Z AUTO 32003KT 0150 FG OVC006/// 03/03 Q1017 RED
  • 210320Z AUTO 32003KT 1500 BR NCD 03/03 Q1017 AMB
  • 210255Z AUTO 31003KT 1200 FG NCD 02/02 Q1017 AMB
  • 210241Z AUTO 28004KT 0750 BR NCD 01/01 Q1017 RED
  • 210225Z AUTO 29003KT 0800 BR NCD 02/01 Q1017 AMB
  • 210222Z AUTO 30003KT 1000 BR FEW006/// 02/02 Q1017 AMB
  • 210155Z AUTO 31003KT 0400 FG OVC005/// 04/04 Q1017 RED
  • 210141Z AUTO VRB02KT 0500 BR NCD 05/04 Q1017 RED
  • 210125Z AUTO VRB02KT 1300 FG NCD 04/04 Q1017 AMB
  • 210108Z AUTO VRB02KT 0500 BR NCD 05/05 Q1017 RED
  • 210055Z AUTO VRB02KT 1900 BR NCD 04/04 Q1017 YLO

TAF TAF EBFN
Valid from the 20 at 19:00 until the 21 at 07:00 UTC


201541Z 2019/2107 02008KT 4000 BR SCT004
BECMG 2021/2023 36005KT 1000 BR BKN002
TEMPO 2022/2107 VRB03KT 0100 FG OVC001



MET'MAP, your aeronautical weather chart ! - Copyright ORBIFLY December 2007 - Disclaimer

ORBIFLY MET'MAP TEAM :

Programming & Development : Alexandra Zaïnal
Concept & original design : Baudouin d'Aumeries
Assistance for programming : Marc-Olivier Méhu
Technical & hardware support : Manuel Goepfert

Contact : metmap@orbifly.com




SOURCES & CREDITS :

   NOAA